Weather at Écrosnes Ultralightport

Public forecast

Using degrees Celsius for public forecast. Weather courtesy of forecast.io.

Closest aviation weather report (METAR) to Écrosnes Ultralightport

Report is more than 6 hours old.

Closest report is Aérodrome de Chartres-Métropole, 10.2 nm (19.0 km) SW. Retrieved 2012/09/24 07:00 UTC (10 years ago):

LFOR 240700Z 21012G23KT 180V250 8000 -SHRA SCT008 BKN020 16/15 Q0991

Closest aviation forecast (TAF) to Écrosnes Ultralightport

Forecast is more than 12 hours old.

Closest forecast is Villacoublay-Vélizy (BA 107) Air Base, 22.3 nm (41.3 km) NE. Retrieved 2022/09/17 15:00 UTC (18 days ago):

TAF LFPV 171400Z 1715/1815 34008KT CAVOK TX19/1815Z TN08/1805Z